createdAt,value
2023-03-13T00:01:36.841Z,44.71853
2023-03-13T00:06:38.531Z,47.03448
2023-03-13T00:11:40.154Z,46.19417
2023-03-13T00:16:41.862Z,46.44917
2023-03-13T00:21:43.567Z,47.3711
2023-03-13T00:26:45.212Z,48.5514
2023-03-13T00:31:46.881Z,48.9589
2023-03-13T00:36:48.529Z,50.33056
2023-03-13T00:41:50.135Z,50.86044
2023-03-13T00:46:51.804Z,52.50224
2023-03-13T00:51:53.451Z,52.00248
2023-03-13T00:56:55.160Z,49.15257
2023-03-13T01:01:56.831Z,48.82774
2023-03-13T01:06:58.508Z,50.01139
2023-03-13T01:12:00.357Z,58.07942
2023-03-13T01:17:02.047Z,56.4344
2023-03-13T01:22:03.641Z,57.20438
2023-03-13T01:27:05.350Z,56.78095
2023-03-13T01:32:07.056Z,57.78043
2023-03-13T01:37:08.692Z,59.07652
2023-03-13T01:42:10.340Z,60.69334
2023-03-13T01:47:12.001Z,60.38201
2023-03-13T01:52:13.706Z,60.30645
2023-03-13T01:57:15.441Z,61.0707
2023-03-13T02:02:17.087Z,60.76244
2023-03-13T02:07:18.774Z,61.2803
2023-03-13T02:12:20.391Z,63.71208
2023-03-13T02:17:22.042Z,64.27683
2023-03-13T02:22:23.698Z,65.35409
2023-03-13T02:27:25.303Z,65.68912
2023-03-13T02:32:27.830Z,64.75799
2023-03-13T02:37:29.500Z,64.64494
2023-03-13T02:42:31.149Z,66.2422
2023-03-13T02:47:32.797Z,62.8943
2023-03-13T02:52:34.440Z,62.06544
2023-03-13T02:57:36.111Z,61.6422
2023-03-13T03:02:37.765Z,61.04352
2023-03-13T03:07:39.366Z,59.68247
2023-03-13T03:12:41.023Z,63.29881
2023-03-13T03:17:42.785Z,66.10511
2023-03-13T03:22:44.427Z,65.30993
2023-03-13T03:27:46.053Z,63.54835
2023-03-13T03:32:47.772Z,65.50223
2023-03-13T03:37:49.471Z,63.94658
2023-03-13T03:42:51.144Z,66.18718
2023-03-13T03:47:52.819Z,66.39456
2023-03-13T03:52:54.459Z,70.14469
2023-03-13T03:57:56.184Z,68.60633
2023-03-13T04:02:57.911Z,67.45415
2023-03-13T04:07:59.688Z,65.77397
2023-03-13T04:13:01.410Z,66.95442
2023-03-13T04:18:03.043Z,67.12021
2023-03-13T04:23:04.684Z,67.79121
2023-03-13T04:28:06.383Z,69.50661
2023-03-13T04:33:08.274Z,68.10789
2023-03-13T04:38:09.892Z,69.26797
2023-03-13T04:43:11.562Z,67.62566
2023-03-13T04:48:13.242Z,68.20326
2023-03-13T04:53:14.835Z,69.0329
2023-03-13T04:58:16.455Z,69.21085
2023-03-13T05:03:18.248Z,69.02548
2023-03-13T05:08:19.911Z,69.49878
2023-03-13T05:13:21.625Z,69.67713
2023-03-13T05:18:23.302Z,69.91777
2023-03-13T05:23:24.951Z,68.67338
2023-03-13T05:28:26.617Z,68.88393
2023-03-13T05:33:28.200Z,67.66131
2023-03-13T05:38:29.864Z,71.00042
2023-03-13T05:43:31.457Z,72.8127
2023-03-13T05:48:33.071Z,73.55671
2023-03-13T05:53:34.712Z,75.14516
2023-03-13T05:58:36.312Z,74.82706
2023-03-13T06:03:38.142Z,72.99961
2023-03-13T06:08:39.958Z,71.84099
2023-03-13T06:13:41.744Z,73.98218
2023-03-13T06:18:43.556Z,81.5279
2023-03-13T06:23:45.115Z,74.13791
2023-03-13T06:28:46.697Z,71.13048
2023-03-13T06:33:49.741Z,69.67464
2023-03-13T06:38:52.377Z,73.62728
2023-03-13T06:43:53.945Z,71.26153
2023-03-13T06:48:55.548Z,78.28824
2023-03-13T06:53:57.339Z,77.69908
2023-03-13T06:59:00.021Z,78.59629
2023-03-13T07:04:01.854Z,75.59952
2023-03-13T07:09:03.551Z,73.32756
2023-03-13T07:14:15.833Z,75.32143
2023-03-13T07:19:18.579Z,78.73935
2023-03-13T07:24:20.270Z,82.00348
2023-03-13T07:29:21.909Z,76.87043
2023-03-13T07:34:23.586Z,70.89712
2023-03-13T07:39:25.306Z,72.69691
2023-03-13T07:44:26.965Z,78.57873
2023-03-13T07:49:28.691Z,80.71835
2023-03-13T07:54:30.307Z,80.9913
2023-03-13T07:59:31.916Z,78.11099
2023-03-13T08:04:33.670Z,77.45091
2023-03-13T08:09:35.438Z,72.52994
2023-03-13T08:14:37.080Z,72.28286
2023-03-13T08:19:38.754Z,74.20876
2023-03-13T08:24:40.585Z,70.58933
2023-03-13T08:29:42.178Z,70.92087
2023-03-13T08:34:43.876Z,72.39765
2023-03-13T08:39:45.520Z,71.01318
2023-03-13T08:44:47.125Z,70.58951
2023-03-13T08:49:48.740Z,76.74643
2023-03-13T08:54:50.353Z,83.41579
2023-03-13T08:59:51.987Z,80.65296
2023-03-13T09:04:53.779Z,80.17517
2023-03-13T09:09:55.482Z,76.46987
2023-03-13T09:14:57.143Z,74.07798
2023-03-13T09:20:00.887Z,73.64389
2023-03-13T09:25:02.939Z,72.00684
2023-03-13T09:30:04.550Z,74.77012
2023-03-13T09:35:06.171Z,77.79616
2023-03-13T09:40:07.799Z,76.13238
2023-03-13T09:45:09.421Z,73.02418
2023-03-13T09:50:11.044Z,76.06127
2023-03-13T09:55:12.662Z,75.36984
2023-03-13T10:00:14.315Z,73.1565
2023-03-13T10:05:15.996Z,73.25783
2023-03-13T10:10:17.859Z,72.42979
2023-03-13T10:15:19.524Z,73.18205
2023-03-13T10:20:21.342Z,69.07949
2023-03-13T10:25:23.042Z,71.05273
2023-03-13T10:30:24.779Z,73.50086
2023-03-13T10:35:26.384Z,72.14669
2023-03-13T10:40:28.098Z,73.58007
2023-03-13T10:45:29.866Z,76.09515
2023-03-13T10:50:31.498Z,73.79711
2023-03-13T10:55:33.137Z,75.02916
2023-03-13T11:00:34.822Z,72.80321
2023-03-13T11:05:36.342Z,72.92019
2023-03-13T11:10:38.116Z,75.67571
2023-03-13T11:15:39.743Z,73.84471
2023-03-13T11:20:41.399Z,81.76557
2023-03-13T11:25:43.016Z,86.92473
2023-03-13T11:30:44.640Z,86.16666
2023-03-13T11:35:46.454Z,83.44139
2023-03-13T11:40:48.089Z,75.95604
2023-03-13T11:45:49.809Z,75.13288
2023-03-13T11:50:51.553Z,81.21636
2023-03-13T11:55:53.150Z,81.15062
2023-03-13T12:00:54.798Z,82.52503
2023-03-13T12:05:56.427Z,80.30891
2023-03-13T12:10:58.105Z,81.74632
2023-03-13T12:15:59.741Z,85.65394
2023-03-13T12:21:01.409Z,81.64138
2023-03-13T12:26:03.088Z,76.87476
2023-03-13T12:31:04.852Z,72.80811
2023-03-13T12:36:06.565Z,76.29414
2023-03-13T12:41:08.265Z,76.81337
2023-03-13T12:46:10.023Z,77.42895
2023-03-13T12:51:11.667Z,79.28708
2023-03-13T12:56:13.327Z,82.24824
2023-03-13T13:01:14.992Z,85.2323
2023-03-13T13:06:16.727Z,88.82834
2023-03-13T13:11:18.367Z,90.09375
2023-03-13T13:16:20.025Z,85.76259
2023-03-13T13:21:21.805Z,83.01898
2023-03-13T13:26:23.418Z,81.59012
2023-03-13T13:31:25.157Z,79.45823
2023-03-13T13:36:26.814Z,83.01608
2023-03-13T13:41:28.517Z,82.10982
2023-03-13T13:46:30.263Z,81.46605
2023-03-13T13:51:32.105Z,80.66817
2023-03-13T13:56:33.861Z,81.18619
2023-03-13T14:01:35.675Z,81.66979
2023-03-13T14:06:37.487Z,84.72365
2023-03-13T14:11:39.382Z,83.80615
2023-03-13T14:16:41.217Z,85.27444
2023-03-13T14:21:42.851Z,84.6304
2023-03-13T14:26:44.486Z,84.05338
2023-03-13T14:31:46.290Z,80.8728
2023-03-13T14:36:48.046Z,82.52912
2023-03-13T14:41:49.789Z,85.01163
2023-03-13T14:46:51.433Z,84.31545
2023-03-13T14:51:53.177Z,86.71184
2023-03-13T14:56:54.849Z,88.78907
2023-03-13T15:01:56.467Z,88.26268
2023-03-13T15:06:58.111Z,88.84018
2023-03-13T15:11:59.824Z,82.97258
2023-03-13T15:17:01.443Z,81.48878
2023-03-13T15:22:03.049Z,78.9268
2023-03-13T15:27:04.807Z,83.21454
2023-03-13T15:32:06.522Z,89.02211
2023-03-13T15:37:08.200Z,88.22741
2023-03-13T15:42:09.867Z,85.48781
2023-03-13T15:47:11.494Z,83.09171
2023-03-13T15:52:13.194Z,81.75072
2023-03-13T15:57:14.807Z,80.14429
2023-03-13T16:02:16.501Z,84.25192
2023-03-13T16:07:18.169Z,80.69306
2023-03-13T16:12:19.826Z,86.63608
2023-03-13T16:17:21.452Z,82.19103
2023-03-13T16:22:23.111Z,83.09702
2023-03-13T16:27:24.763Z,84.51573
2023-03-13T16:32:26.469Z,80.89906
2023-03-13T16:37:28.242Z,81.98033
2023-03-13T16:42:29.925Z,85.24464
2023-03-13T16:47:31.587Z,82.18565
2023-03-13T16:52:33.475Z,81.24571
2023-03-13T16:57:35.085Z,82.48998
2023-03-13T17:02:36.766Z,80.99725
2023-03-13T17:07:38.426Z,81.05169
2023-03-13T17:12:40.077Z,84.41374
2023-03-13T17:17:41.682Z,82.11076
2023-03-13T17:22:43.321Z,80.71092
2023-03-13T17:27:44.997Z,81.82578
2023-03-13T17:32:46.930Z,80.42127
2023-03-13T17:37:48.630Z,81.71442
2023-03-13T17:42:50.555Z,79.3429
2023-03-13T17:47:52.502Z,80.31754
2023-03-13T17:52:54.133Z,82.49108
2023-03-13T17:57:55.811Z,80.04181
2023-03-13T18:02:57.472Z,78.81235
2023-03-13T18:07:59.246Z,80.80213
2023-03-13T18:13:01.016Z,81.26463
2023-03-13T18:18:02.689Z,84.81406
2023-03-13T18:23:04.372Z,86.49502
2023-03-13T18:28:06.095Z,86.63198
2023-03-13T18:33:07.743Z,86.15842
2023-03-13T18:38:09.625Z,89.58651
2023-03-13T18:43:11.266Z,89.32024
2023-03-13T18:48:12.899Z,88.63179
2023-03-13T18:53:14.562Z,85.70342
2023-03-13T18:58:16.205Z,83.51377
2023-03-13T19:03:17.901Z,80.99184
2023-03-13T19:08:19.540Z,83.46831
2023-03-13T19:13:21.200Z,83.32609
2023-03-13T19:18:22.913Z,80.91839
2023-03-13T19:23:24.504Z,82.63799
2023-03-13T19:28:26.154Z,81.61492
2023-03-13T19:33:27.778Z,82.58578
2023-03-13T19:38:29.462Z,80.83013
2023-03-13T19:43:31.323Z,82.10734
2023-03-13T19:48:32.981Z,85.09471
2023-03-13T19:53:34.570Z,87.8578
2023-03-13T19:58:36.309Z,86.34734
2023-03-13T20:03:37.941Z,83.29943
2023-03-13T20:08:39.711Z,82.49776
2023-03-13T20:13:41.350Z,81.67509
2023-03-13T20:18:43.118Z,82.75949
2023-03-13T20:23:44.732Z,81.78371
2023-03-13T20:28:46.436Z,82.1894
2023-03-13T20:33:48.039Z,82.91951
2023-03-13T20:38:49.726Z,80.86024
2023-03-13T20:43:51.516Z,82.40399
2023-03-13T20:48:53.127Z,83.67284
2023-03-13T20:53:54.834Z,82.46266
2023-03-13T20:58:56.469Z,82.70682
2023-03-13T21:03:58.158Z,81.5532
2023-03-13T21:08:59.844Z,82.21946
2023-03-13T21:14:01.470Z,81.03992
2023-03-13T21:19:03.196Z,83.20257
2023-03-13T21:24:04.963Z,81.78713
2023-03-13T21:29:06.576Z,83.70313
2023-03-13T21:34:08.327Z,82.23841
2023-03-13T21:39:10.038Z,83.63565
2023-03-13T21:44:11.706Z,82.64835
2023-03-13T21:49:13.299Z,89.42084
2023-03-13T21:54:14.984Z,85.74507
2023-03-13T21:59:16.787Z,90.311
2023-03-13T22:04:18.496Z,87.58485
2023-03-13T22:09:20.187Z,84.34634
2023-03-13T22:14:21.890Z,85.2586
2023-03-13T22:19:23.556Z,83.40462
2023-03-13T22:24:25.326Z,84.49863
2023-03-13T22:29:27.220Z,85.96137
2023-03-13T22:34:29.748Z,82.67632
2023-03-13T22:39:31.408Z,83.39387
2023-03-13T22:44:33.081Z,82.05458
2023-03-13T22:49:34.744Z,87.03737
2023-03-13T22:54:36.429Z,81.19537
2023-03-13T22:59:38.026Z,83.3202
2023-03-13T23:04:39.711Z,84.44679
2023-03-13T23:09:41.373Z,88.24151
2023-03-13T23:14:43.022Z,83.86961
2023-03-13T23:19:44.874Z,85.46388
2023-03-13T23:24:46.499Z,85.83691
2023-03-13T23:29:48.081Z,83.48216
2023-03-13T23:34:49.880Z,81.99788
2023-03-13T23:39:51.518Z,83.47555
2023-03-13T23:44:53.213Z,81.1476
2023-03-13T23:49:55.106Z,83.17025
2023-03-13T23:54:56.748Z,82.81899
2023-03-13T23:59:58.500Z,84.11837
